createdAt,value
2023-02-16T00:01:29.246Z,12.85
2023-02-16T00:03:58.372Z,12.27
2023-02-16T00:06:28.360Z,12.60
2023-02-16T00:08:58.361Z,11.80
2023-02-16T00:11:49.655Z,13.13
2023-02-16T00:14:18.758Z,13.63
2023-02-16T00:16:46.927Z,12.88
2023-02-16T00:19:21.126Z,13.43
2023-02-16T00:21:49.659Z,13.57
2023-02-16T00:24:18.076Z,12.90
2023-02-16T00:26:48.294Z,13.32
2023-02-16T00:29:21.334Z,14.30
2023-02-16T00:31:50.411Z,14.20
2023-02-16T00:34:37.209Z,13.70
2023-02-16T00:37:07.917Z,13.38
2023-02-16T00:39:36.797Z,13.43
2023-02-16T00:42:08.524Z,13.57
2023-02-16T00:44:41.147Z,13.85
2023-02-16T00:47:19.928Z,13.30
2023-02-16T00:49:48.411Z,12.95
2023-02-16T00:52:37.779Z,13.38
2023-02-16T00:55:08.950Z,12.73
2023-02-16T00:57:42.083Z,12.55
2023-02-16T01:00:17.483Z,12.48
2023-02-16T01:02:47.630Z,12.57
2023-02-16T01:05:16.464Z,13.02
2023-02-16T01:08:02.210Z,12.02
2023-02-16T01:10:48.568Z,11.95
2023-02-16T01:13:18.725Z,12.00
2023-02-16T01:15:47.403Z,11.57
2023-02-16T01:18:16.480Z,12.10
2023-02-16T01:20:45.570Z,11.52
2023-02-16T01:23:13.816Z,11.85
2023-02-16T01:25:43.380Z,11.35
2023-02-16T01:28:21.369Z,10.98
2023-02-16T01:30:50.536Z,11.43
2023-02-16T01:33:19.172Z,11.55
2023-02-16T01:35:48.094Z,11.88
2023-02-16T01:38:20.066Z,11.30
2023-02-16T01:40:56.587Z,11.90
2023-02-16T01:43:30.354Z,11.20
2023-02-16T01:46:04.371Z,11.65
2023-02-16T01:48:33.229Z,12.07
2023-02-16T01:51:08.077Z,11.98
2023-02-16T01:53:41.108Z,11.13
2023-02-16T01:56:21.227Z,11.63
2023-02-16T01:58:55.465Z,12.00
2023-02-16T02:01:43.492Z,11.13
2023-02-16T02:04:39.096Z,11.88
2023-02-16T02:07:08.363Z,12.15
2023-02-16T02:09:40.460Z,10.75
2023-02-16T02:12:16.511Z,11.65
2023-02-16T02:14:46.975Z,11.40
2023-02-16T02:17:19.641Z,11.50
2023-02-16T02:20:05.534Z,11.20
2023-02-16T02:23:28.643Z,11.15
2023-02-16T02:26:45.320Z,11.98
2023-02-16T02:29:48.980Z,10.98
2023-02-16T02:32:26.715Z,11.10
2023-02-16T02:35:21.148Z,11.18
2023-02-16T02:37:57.819Z,11.52
2023-02-16T02:40:36.798Z,11.02
2023-02-16T02:43:12.564Z,10.90
2023-02-16T02:45:46.273Z,10.68
2023-02-16T02:48:15.353Z,10.98
2023-02-16T02:51:03.016Z,10.60
2023-02-16T02:53:32.301Z,10.80
2023-02-16T02:56:21.285Z,10.30
2023-02-16T02:59:12.158Z,10.65
2023-02-16T03:01:44.713Z,9.93
2023-02-16T03:04:20.852Z,9.80
2023-02-16T03:06:53.771Z,10.13
2023-02-16T03:09:22.643Z,10.38
2023-02-16T03:12:10.454Z,11.45
2023-02-16T03:14:43.388Z,10.50
2023-02-16T03:17:34.310Z,10.13
2023-02-16T03:20:23.591Z,10.43
2023-02-16T03:23:09.931Z,10.05
2023-02-16T03:25:57.803Z,9.20
2023-02-16T03:28:45.949Z,9.32
2023-02-16T03:31:18.037Z,9.40
2023-02-16T03:33:54.518Z,9.27
2023-02-16T03:36:23.587Z,8.95
2023-02-16T03:38:52.739Z,10.00
2023-02-16T03:41:21.112Z,8.68
2023-02-16T03:43:49.315Z,9.18
2023-02-16T03:46:17.777Z,9.15
2023-02-16T03:48:47.330Z,8.70
2023-02-16T03:51:15.817Z,8.88
2023-02-16T03:53:44.029Z,8.35
2023-02-16T03:56:12.273Z,8.02
2023-02-16T03:58:40.438Z,7.95
2023-02-16T04:01:10.066Z,7.75
2023-02-16T04:03:38.380Z,7.70
2023-02-16T04:06:08.613Z,7.47
2023-02-16T04:08:37.277Z,7.25
2023-02-16T04:11:27.214Z,7.30
2023-02-16T04:13:54.656Z,7.00
2023-02-16T04:16:23.088Z,7.20
2023-02-16T04:18:51.356Z,6.75
2023-02-16T04:21:20.965Z,6.70
2023-02-16T04:23:49.239Z,7.40
2023-02-16T04:26:17.473Z,7.50
2023-02-16T04:28:45.703Z,7.18
2023-02-16T04:31:14.050Z,7.38
2023-02-16T04:33:42.284Z,7.82
2023-02-16T04:36:11.434Z,7.93
2023-02-16T04:38:41.086Z,9.18
2023-02-16T04:41:09.300Z,8.60
2023-02-16T04:43:37.556Z,8.55
2023-02-16T04:46:06.050Z,9.23
2023-02-16T04:48:34.240Z,9.23
2023-02-16T04:51:04.979Z,9.25
2023-02-16T04:53:33.402Z,7.38
2023-02-16T04:56:03.079Z,8.23
2023-02-16T04:58:31.314Z,8.60
2023-02-16T05:00:59.513Z,8.32
2023-02-16T05:03:27.957Z,8.15
2023-02-16T05:05:56.237Z,7.70
2023-02-16T05:08:24.630Z,7.75
2023-02-16T05:11:06.669Z,7.57
2023-02-16T05:13:54.767Z,7.32
2023-02-16T05:16:24.236Z,8.18
2023-02-16T05:18:52.489Z,6.68
2023-02-16T05:21:40.787Z,6.32
2023-02-16T05:24:10.631Z,6.45
2023-02-16T05:26:40.358Z,6.97
2023-02-16T05:29:10.280Z,6.93
2023-02-16T05:31:38.903Z,5.88
2023-02-16T05:34:07.185Z,6.65
2023-02-16T05:36:35.388Z,6.55
2023-02-16T05:39:03.651Z,6.63
2023-02-16T05:41:32.190Z,6.20
2023-02-16T05:44:03.251Z,5.95
2023-02-16T05:46:35.312Z,6.05
2023-02-16T05:49:04.452Z,6.25
2023-02-16T05:51:32.927Z,6.65
2023-02-16T05:54:01.146Z,6.00
2023-02-16T05:56:30.143Z,5.93
2023-02-16T05:58:59.809Z,6.55
2023-02-16T06:01:28.492Z,5.70
2023-02-16T06:03:58.126Z,6.10
2023-02-16T06:06:26.457Z,5.30
2023-02-16T06:08:54.648Z,6.05
2023-02-16T06:11:37.858Z,5.80
2023-02-16T06:14:08.362Z,6.07
2023-02-16T06:16:37.917Z,6.13
2023-02-16T06:19:08.155Z,6.55
2023-02-16T06:21:36.975Z,6.20
2023-02-16T06:24:05.991Z,7.25
2023-02-16T06:26:34.234Z,13.32
2023-02-16T06:29:02.683Z,11.10
2023-02-16T06:31:31.308Z,10.55
2023-02-16T06:34:00.399Z,9.63
2023-02-16T06:36:29.985Z,8.25
2023-02-16T06:38:58.230Z,7.63
2023-02-16T06:41:34.287Z,6.82
2023-02-16T06:44:04.203Z,6.38
2023-02-16T06:46:32.462Z,6.88
2023-02-16T06:49:01.112Z,6.90
2023-02-16T06:51:30.784Z,6.47
2023-02-16T06:53:59.137Z,5.50
2023-02-16T06:56:27.973Z,5.70
2023-02-16T06:58:56.240Z,8.75
2023-02-16T07:01:26.029Z,8.07
2023-02-16T07:03:55.748Z,7.18
2023-02-16T07:06:25.741Z,8.57
2023-02-16T07:08:55.574Z,8.35
2023-02-16T07:11:24.198Z,7.93
2023-02-16T07:13:52.778Z,6.93
2023-02-16T07:16:21.063Z,6.90
2023-02-16T07:18:49.370Z,6.82
2023-02-16T07:21:17.629Z,6.75
2023-02-16T07:23:45.959Z,6.63
2023-02-16T07:26:15.633Z,6.78
2023-02-16T07:28:43.808Z,5.88
2023-02-16T07:31:14.043Z,6.63
2023-02-16T07:33:42.549Z,5.53
2023-02-16T07:36:11.781Z,5.75
2023-02-16T07:38:41.893Z,6.15
2023-02-16T07:41:11.146Z,6.22
2023-02-16T07:43:42.797Z,6.43
2023-02-16T07:48:39.513Z,6.63
2023-02-16T07:51:08.178Z,7.05
2023-02-16T07:53:36.436Z,6.78
2023-02-16T07:56:05.213Z,7.00
2023-02-16T07:58:33.380Z,6.72
2023-02-16T08:01:10.228Z,6.68
2023-02-16T08:03:38.456Z,7.25
2023-02-16T08:06:08.137Z,7.03
2023-02-16T08:08:36.913Z,14.50
2023-02-16T08:11:10.996Z,11.18
2023-02-16T08:13:39.274Z,9.57
2023-02-16T08:16:11.715Z,8.10
2023-02-16T08:18:42.257Z,9.70
2023-02-16T08:21:14.315Z,12.88
2023-02-16T08:23:47.673Z,10.13
2023-02-16T08:26:18.274Z,9.40
2023-02-16T08:28:47.242Z,8.38
2023-02-16T08:31:18.978Z,7.78
2023-02-16T08:33:49.098Z,7.18
2023-02-16T08:36:21.505Z,7.57
2023-02-16T08:38:51.009Z,6.68
2023-02-16T08:41:19.912Z,6.68
2023-02-16T08:43:48.528Z,6.95
2023-02-16T08:46:18.389Z,6.25
2023-02-16T08:48:47.450Z,6.57
2023-02-16T08:51:17.682Z,6.63
2023-02-16T08:53:46.902Z,5.97
2023-02-16T08:56:16.736Z,6.00
2023-02-16T08:58:45.597Z,6.35
2023-02-16T09:01:15.062Z,6.53
2023-02-16T09:03:46.514Z,6.13
2023-02-16T09:06:17.059Z,6.35
2023-02-16T09:08:46.631Z,6.05
2023-02-16T09:11:17.039Z,6.35
2023-02-16T09:13:46.901Z,5.68
2023-02-16T09:16:17.635Z,5.50
2023-02-16T09:18:47.970Z,6.18
2023-02-16T09:21:18.422Z,5.45
2023-02-16T09:23:48.439Z,5.27
2023-02-16T09:26:16.957Z,5.40
2023-02-16T09:28:47.272Z,5.85
2023-02-16T09:31:20.079Z,6.18
2023-02-16T09:33:49.784Z,6.47
2023-02-16T09:36:18.235Z,5.20
2023-02-16T09:38:47.628Z,6.40
2023-02-16T09:41:29.276Z,5.95
2023-02-16T09:46:30.253Z,6.90
2023-02-16T09:49:03.881Z,6.93
2023-02-16T09:51:37.532Z,7.18
2023-02-16T09:54:17.543Z,6.40
2023-02-16T09:56:52.257Z,7.00
2023-02-16T09:59:34.714Z,6.38
2023-02-16T10:02:31.197Z,6.90
2023-02-16T10:05:22.244Z,7.07
2023-02-16T10:08:03.912Z,7.43
2023-02-16T10:13:09.347Z,7.00
2023-02-16T10:15:42.771Z,6.50
2023-02-16T10:18:22.092Z,6.50
2023-02-16T10:20:56.491Z,6.97
2023-02-16T10:23:35.802Z,7.13
2023-02-16T10:26:15.120Z,6.28
2023-02-16T10:28:48.099Z,6.18
2023-02-16T10:31:23.930Z,6.68
2023-02-16T10:34:10.381Z,6.97
2023-02-16T10:37:01.190Z,6.30
2023-02-16T10:39:40.789Z,6.28
2023-02-16T10:42:18.754Z,7.65
2023-02-16T10:44:52.317Z,6.50
2023-02-16T10:47:31.165Z,6.38
2023-02-16T10:49:59.639Z,6.90
2023-02-16T10:52:33.740Z,6.82
2023-02-16T10:55:03.926Z,6.47
2023-02-16T10:57:33.602Z,6.80
2023-02-16T11:00:05.570Z,7.10
2023-02-16T11:02:39.718Z,6.47
2023-02-16T11:05:34.531Z,6.47
2023-02-16T11:08:05.164Z,5.97
2023-02-16T11:10:40.223Z,6.60
2023-02-16T11:13:18.252Z,6.20
2023-02-16T11:15:54.569Z,6.05
2023-02-16T11:18:36.350Z,6.40
2023-02-16T11:23:37.578Z,5.60
2023-02-16T11:26:08.966Z,6.00
2023-02-16T11:28:39.494Z,5.80
2023-02-16T11:31:20.460Z,6.28
2023-02-16T11:34:01.106Z,4.45
2023-02-16T11:36:34.409Z,5.93
2023-02-16T11:39:08.830Z,5.28
2023-02-16T11:41:38.344Z,5.25
2023-02-16T11:44:27.203Z,5.93
2023-02-16T11:46:57.232Z,5.95
2023-02-16T11:49:32.847Z,5.75
2023-02-16T11:52:02.112Z,5.95
2023-02-16T11:54:31.768Z,6.43
2023-02-16T11:57:05.306Z,5.28
2023-02-16T11:59:37.762Z,6.03
2023-02-16T12:02:33.915Z,5.00
2023-02-16T12:05:21.895Z,5.50
2023-02-16T12:08:02.635Z,6.13
2023-02-16T12:10:39.947Z,5.55
2023-02-16T12:13:21.263Z,5.63
2023-02-16T12:15:55.115Z,6.10
2023-02-16T12:18:34.261Z,5.05
2023-02-16T12:21:14.465Z,4.50
2023-02-16T12:23:48.334Z,5.13
2023-02-16T12:26:38.914Z,4.40
2023-02-16T12:29:30.267Z,4.75
2023-02-16T12:32:11.550Z,4.57
2023-02-16T12:34:55.701Z,4.53
2023-02-16T12:37:37.210Z,4.60
2023-02-16T12:40:16.661Z,4.50
2023-02-16T12:42:55.900Z,4.47
2023-02-16T12:45:27.046Z,3.97
2023-02-16T12:47:59.165Z,4.00
2023-02-16T12:50:30.598Z,3.90
2023-02-16T12:53:04.420Z,4.28
2023-02-16T12:55:37.275Z,4.30
2023-02-16T12:58:17.479Z,4.57
2023-02-16T13:00:49.665Z,4.53
2023-02-16T13:03:28.992Z,4.95
2023-02-16T13:06:08.251Z,4.25
2023-02-16T13:08:43.610Z,4.57
2023-02-16T13:11:20.635Z,4.05
2023-02-16T13:13:53.423Z,4.88
2023-02-16T13:16:30.905Z,4.60
2023-02-16T13:18:59.699Z,4.75
2023-02-16T13:21:51.633Z,4.05
2023-02-16T13:24:30.281Z,4.32
2023-02-16T13:27:13.421Z,4.38
2023-02-16T13:29:53.677Z,4.10
2023-02-16T13:32:58.594Z,3.78
2023-02-16T13:35:43.784Z,4.40
2023-02-16T13:38:30.167Z,4.32
2023-02-16T13:41:21.317Z,4.40
2023-02-16T13:43:54.437Z,4.50
2023-02-16T13:46:29.613Z,4.38
2023-02-16T13:48:58.210Z,4.97
2023-02-16T13:51:30.970Z,4.38
2023-02-16T13:54:01.521Z,5.13
2023-02-16T13:56:36.325Z,5.75
2023-02-16T13:59:40.956Z,5.55
2023-02-16T14:02:14.035Z,5.40
2023-02-16T14:05:05.305Z,5.35
2023-02-16T14:07:38.438Z,5.07
2023-02-16T14:10:13.848Z,5.22
2023-02-16T14:12:44.628Z,5.47
2023-02-16T14:15:21.460Z,4.88
2023-02-16T14:17:51.218Z,5.40
2023-02-16T14:20:31.199Z,4.90
2023-02-16T14:23:03.337Z,4.72
2023-02-16T14:25:38.006Z,4.70
2023-02-16T14:28:27.988Z,4.47
2023-02-16T14:30:58.042Z,4.90
2023-02-16T14:33:40.710Z,4.60
2023-02-16T14:36:15.867Z,4.95
2023-02-16T14:38:47.133Z,4.32
2023-02-16T14:41:27.268Z,4.63
2023-02-16T14:44:12.979Z,4.35
2023-02-16T14:46:52.228Z,4.20
2023-02-16T14:49:56.864Z,3.63
2023-02-16T14:52:56.693Z,4.13
2023-02-16T14:55:56.825Z,4.10
2023-02-16T14:58:32.704Z,4.22
2023-02-16T15:01:07.362Z,4.00
2023-02-16T15:03:45.291Z,3.90
2023-02-16T15:06:23.686Z,4.40
2023-02-16T15:08:58.270Z,3.70
2023-02-16T15:11:34.053Z,4.18
2023-02-16T15:14:10.137Z,3.95
2023-02-16T15:16:43.889Z,4.03
2023-02-16T15:19:18.628Z,3.88
2023-02-16T15:21:48.245Z,3.95
2023-02-16T15:24:25.863Z,3.60
2023-02-16T15:27:01.553Z,3.88
2023-02-16T15:29:31.435Z,3.97
2023-02-16T15:32:00.979Z,4.50
2023-02-16T15:34:33.295Z,5.10
2023-02-16T15:37:21.001Z,5.10
2023-02-16T15:40:08.629Z,5.18
2023-02-16T15:42:40.038Z,5.40
2023-02-16T15:45:27.090Z,5.88
2023-02-16T15:47:55.327Z,5.93
2023-02-16T15:50:26.966Z,5.75
2023-02-16T15:52:56.728Z,5.82
2023-02-16T15:55:25.020Z,5.65
2023-02-16T15:57:54.169Z,5.60
2023-02-16T16:00:25.075Z,5.28
2023-02-16T16:02:55.631Z,5.60
2023-02-16T16:05:27.188Z,5.90
2023-02-16T16:07:58.650Z,5.70
2023-02-16T16:10:30.837Z,6.32
2023-02-16T16:13:01.187Z,6.13
2023-02-16T16:15:31.286Z,5.65
2023-02-16T16:18:00.956Z,5.85
2023-02-16T16:20:31.904Z,6.13
2023-02-16T16:23:04.555Z,5.45
2023-02-16T16:25:42.212Z,5.85
2023-02-16T16:28:14.256Z,5.43
2023-02-16T16:30:45.364Z,5.75
2023-02-16T16:33:16.295Z,6.47
2023-02-16T16:35:47.296Z,6.18
2023-02-16T16:38:28.695Z,5.82
2023-02-16T16:40:59.820Z,5.22
2023-02-16T16:43:30.368Z,5.18
2023-02-16T16:46:13.832Z,5.53
2023-02-16T16:48:44.805Z,5.47
2023-02-16T16:51:14.756Z,5.80
2023-02-16T16:53:53.116Z,6.43
2023-02-16T16:56:22.969Z,7.03
2023-02-16T16:58:52.538Z,52.80
2023-02-16T17:01:21.990Z,98.57
2023-02-16T17:03:50.330Z,93.60
2023-02-16T17:06:19.292Z,133.52
2023-02-16T17:08:49.280Z,107.75
2023-02-16T17:11:24.981Z,104.60
2023-02-16T17:13:54.878Z,79.75
2023-02-16T17:16:27.352Z,78.15
2023-02-16T17:18:55.780Z,92.80
2023-02-16T17:21:24.206Z,116.15
2023-02-16T17:23:54.034Z,110.93
2023-02-16T17:26:22.859Z,121.75
2023-02-16T17:28:52.047Z,101.13
2023-02-16T17:31:20.356Z,89.93
2023-02-16T17:33:48.844Z,81.60
2023-02-16T17:36:17.715Z,64.57
2023-02-16T17:38:46.208Z,82.00
2023-02-16T17:41:22.007Z,96.68
2023-02-16T17:43:50.545Z,162.00
2023-02-16T17:46:20.112Z,135.48
2023-02-16T17:48:51.598Z,159.85
2023-02-16T17:51:22.157Z,167.05
2023-02-16T17:53:50.415Z,117.03
2023-02-16T17:56:22.505Z,91.78
2023-02-16T17:58:50.769Z,77.53
2023-02-16T18:01:20.980Z,65.88
2023-02-16T18:03:49.563Z,55.15
2023-02-16T18:06:20.016Z,48.17
2023-02-16T18:08:48.572Z,42.95
2023-02-16T18:11:16.844Z,40.45
2023-02-16T18:13:46.580Z,38.45
2023-02-16T18:16:18.730Z,35.25
2023-02-16T18:18:47.176Z,31.13
2023-02-16T18:21:15.378Z,29.35
2023-02-16T18:23:43.814Z,26.83
2023-02-16T18:26:15.154Z,25.40
2023-02-16T18:28:44.411Z,23.40
2023-02-16T18:31:14.818Z,20.90
2023-02-16T18:33:43.191Z,18.80
2023-02-16T18:36:11.490Z,16.17
2023-02-16T18:38:40.066Z,13.75
2023-02-16T18:41:09.106Z,14.80
2023-02-16T18:43:37.363Z,14.32
2023-02-16T18:46:07.256Z,13.55
2023-02-16T18:48:37.778Z,13.15
2023-02-16T18:51:09.448Z,12.85
2023-02-16T18:56:07.170Z,10.27
2023-02-16T18:58:35.894Z,8.65
2023-02-16T19:01:14.762Z,10.45
2023-02-16T19:03:44.498Z,9.05
2023-02-16T19:06:12.804Z,9.55
2023-02-16T19:08:41.006Z,10.02
2023-02-16T19:11:09.189Z,11.10
2023-02-16T19:13:37.456Z,11.00
2023-02-16T19:16:06.747Z,10.85
2023-02-16T19:18:35.220Z,10.07
2023-02-16T19:21:07.810Z,9.35
2023-02-16T19:23:36.265Z,10.07
2023-02-16T19:26:07.415Z,9.43
2023-02-16T19:28:36.212Z,7.43
2023-02-16T19:31:06.413Z,8.55
2023-02-16T19:33:36.091Z,9.40
2023-02-16T19:36:07.815Z,7.90
2023-02-16T19:38:36.142Z,7.82
2023-02-16T19:41:10.161Z,7.75
2023-02-16T19:43:38.437Z,7.85
2023-02-16T19:46:07.591Z,9.45
2023-02-16T19:48:36.109Z,9.15
2023-02-16T19:51:07.602Z,8.25
2023-02-16T19:53:37.964Z,7.05
2023-02-16T19:56:07.689Z,7.53
2023-02-16T19:58:36.367Z,6.53
2023-02-16T20:01:08.856Z,7.45
2023-02-16T20:03:37.231Z,6.55
2023-02-16T20:06:17.293Z,6.55
2023-02-16T20:08:46.206Z,6.70
2023-02-16T20:11:15.564Z,8.43
2023-02-16T20:13:44.214Z,8.02
2023-02-16T20:16:13.928Z,47.17
2023-02-16T20:18:43.056Z,75.10
2023-02-16T20:21:16.566Z,94.00
2023-02-16T20:23:45.390Z,130.88
2023-02-16T20:26:16.570Z,67.75
2023-02-16T20:28:44.876Z,48.95
2023-02-16T20:31:15.484Z,55.65
2023-02-16T20:33:44.014Z,65.93
2023-02-16T20:36:12.798Z,65.57
2023-02-16T20:38:42.421Z,112.82
2023-02-16T20:41:10.701Z,81.85
2023-02-16T20:43:39.716Z,49.17
2023-02-16T20:46:09.658Z,44.90
2023-02-16T20:48:37.990Z,56.63
2023-02-16T20:51:07.796Z,68.47
2023-02-16T20:53:36.958Z,78.00
2023-02-16T20:56:09.281Z,116.28
2023-02-16T20:58:38.557Z,102.30
2023-02-16T21:01:13.394Z,71.47
2023-02-16T21:03:41.775Z,55.30
2023-02-16T21:06:10.426Z,41.85
2023-02-16T21:08:38.862Z,28.63
2023-02-16T21:11:08.611Z,21.90
2023-02-16T21:13:37.641Z,19.92
2023-02-16T21:16:07.277Z,16.50
2023-02-16T21:18:39.377Z,12.65
2023-02-16T21:21:09.595Z,10.95
2023-02-16T21:23:37.826Z,9.77
2023-02-16T21:26:08.791Z,10.73
2023-02-16T21:28:37.254Z,8.38
2023-02-16T21:31:07.876Z,10.13
2023-02-16T21:33:36.379Z,8.97
2023-02-16T21:36:06.764Z,12.93
2023-02-16T21:38:36.561Z,10.38
2023-02-16T21:41:23.570Z,10.18
2023-02-16T21:43:54.599Z,10.05
2023-02-16T21:46:23.245Z,12.60
2023-02-16T21:48:50.545Z,10.07
2023-02-16T21:51:20.663Z,8.55
2023-02-16T21:53:49.244Z,7.45
2023-02-16T21:56:27.963Z,8.52
2023-02-16T21:58:57.599Z,8.13
2023-02-16T22:01:27.092Z,6.60
2023-02-16T22:03:58.687Z,6.80
2023-02-16T22:08:55.605Z,8.38
2023-02-16T22:11:23.900Z,7.70
2023-02-16T22:13:55.547Z,7.47
2023-02-16T22:18:58.245Z,6.03
2023-02-16T22:21:26.659Z,7.30
2023-02-16T22:23:54.890Z,8.13
2023-02-16T22:26:25.796Z,8.18
2023-02-16T22:28:54.997Z,7.15
2023-02-16T22:31:26.520Z,7.70
2023-02-16T22:36:26.165Z,7.90
2023-02-16T22:38:55.281Z,7.65
2023-02-16T22:41:24.763Z,7.63
2023-02-16T22:43:54.487Z,7.40
2023-02-16T22:46:25.510Z,7.13
2023-02-16T22:48:53.970Z,6.85
2023-02-16T22:51:22.973Z,6.53
2023-02-16T22:53:51.456Z,6.38
2023-02-16T22:56:20.705Z,6.75
2023-02-16T22:58:49.196Z,5.72
2023-02-16T23:01:19.094Z,6.15
2023-02-16T23:03:49.429Z,6.78
2023-02-16T23:06:19.489Z,5.65
2023-02-16T23:08:52.015Z,5.93
2023-02-16T23:11:20.851Z,5.63
2023-02-16T23:13:49.508Z,5.40
2023-02-16T23:16:20.178Z,5.40
2023-02-16T23:18:50.259Z,5.20
2023-02-16T23:21:20.315Z,6.00
2023-02-16T23:23:50.645Z,5.30
2023-02-16T23:26:20.055Z,5.22
2023-02-16T23:28:51.944Z,5.40
2023-02-16T23:31:20.876Z,4.72
2023-02-16T23:33:51.271Z,4.75
2023-02-16T23:36:19.804Z,4.90
2023-02-16T23:38:47.953Z,4.90
2023-02-16T23:41:16.739Z,5.10
2023-02-16T23:43:45.125Z,4.82
2023-02-16T23:46:14.026Z,4.93
2023-02-16T23:48:42.310Z,5.10
2023-02-16T23:51:12.374Z,5.38
2023-02-16T23:53:40.935Z,4.78
2023-02-16T23:56:12.212Z,5.07
2023-02-16T23:58:42.266Z,4.40
